NCAR-RAP Real-Time Weather Data

Output produced by METARs form (08 May 2021  15:36 UTC)
found at http://weather.rap.ucar.edu/surface/
 
KSAC 081453Z 33019G24KT 10SM CLR 18/M02 A3001 RMK AO2 SLP163 T01781022 53012
KSAC 081353Z 31011G20KT 10SM CLR 17/M03 A3000 RMK AO2 SLP160 T01671028
KSAC 081253Z AUTO 32013G23KT 10SM CLR 17/M03 A2999 RMK AO2 SLP154 T01671028
KSAC 081153Z AUTO 33015G27KT 10SM CLR 17/M03 A2998 RMK AO2 PK WND 32027/1149 SLP151 T01721033 10183 20128 53001
KSAC 081053Z AUTO 33015KT 10SM CLR 18/M04 A2998 RMK AO2 SLP151 T01781039
KSAC 080953Z AUTO 33014G21KT 10SM CLR 18/M03 A2997 RMK AO2 SLP149 T01831028
KSAC 080853Z AUTO 32010KT 10SM CLR 18/M01 A2997 RMK AO2 SLP150 T01781006 55001
KSAC 080753Z AUTO 32009KT 10SM CLR 18/M01 A2997 RMK AO2 SLP149 T01831006 402780106
KSAC 080653Z AUTO 23003KT 10SM CLR 14/08 A2997 RMK AO2 SLP149 T01390078
KSAC 080553Z AUTO 25005KT 10SM CLR 16/07 A2998 RMK AO2 SLP151 T01560072 10278 20156 51014
KSAC 080453Z AUTO 23004KT 10SM CLR 17/06 A2997 RMK AO2 SLP150 T01720061
KSAC 080353Z 22007KT 10SM CLR 20/06 A2995 RMK AO2 SLP143 T02000061
KSAC 080317Z 22009KT 10SM CLR 21/07 A2994 RMK AO2 T02110067
KSAC 080308Z 23007KT 2SM HZ CLR 22/07 A2994 RMK AO2 T02170067
KSAC 080253Z 22010KT 10SM CLR 23/07 A2994 RMK AO2 SLP137 T02280067 55002
KSAC 080153Z VRB03KT 10SM CLR 27/04 A2994 RMK AO2 SLP137 T02670039
KSAC 080053Z 33008KT 320V020 10SM CLR 27/03 A2994 RMK AO2 SLP138 T02720033
KSAC 072353Z 32007KT 10SM CLR 27/05 A2994 RMK AO2 SLP139 T02720050 10272 20183 56020
KSAC 072253Z 32008KT 10SM CLR 27/06 A2996 RMK AO2 SLP145 T02670056
KSAC 072153Z 33010G17KT 10SM CLR 27/06 A2998 RMK AO2 SLP153 T02670056
KSAC 072053Z 35008KT 10SM CLR 24/06 A3000 RMK AO2 SLP159 T02440061 58010
KSAC 071953Z 31008KT 250V340 10SM CLR 23/07 A3002 RMK AO2 SLP164 T02330067
KSAC 071853Z VRB06KT 10SM CLR 22/07 A3003 RMK AO2 SLP169 T02170067
KSAC 071753Z 00000KT 10SM CLR 18/08 A3003 RMK AO2 SLP169 T01830083 10189 20106 51008
KSAC 071653Z 00000KT 10SM CLR 17/08 A3003 RMK AO2 SLP168 T01670078
KSAC 071553Z 00000KT 10SM CLR 14/08 A3002 RMK AO2 SLP165 T01440083
KSAC 071453Z 00000KT 10SM CLR 12/08 A3001 RMK AO2 SLP162 T01220078 53012
KSAC 071353Z 15003KT 10SM CLR 11/08 A3000 RMK AO2 SLP158 T01110078
KSAC 071253Z AUTO 14004KT 10SM CLR 11/07 A2997 RMK AO2 SLP150 T01060072
KSAC 071153Z AUTO 13005KT 10SM CLR 11/08 A2997 RMK AO2 SLP150 T01110078 10150 20111 51002
KSAC 071053Z AUTO 18007KT 10SM CLR 12/08 A2997 RMK AO2 SLP150 T01220078
KSAC 070953Z AUTO 18007KT 150V220 10SM CLR 12/08 A2997 RMK AO2 SLP149 T01220083
KSAC 070853Z AUTO 16007KT 10SM CLR 13/08 A2997 RMK AO2 SLP148 T01330083 58003
KSAC 070753Z AUTO 18007KT 10SM CLR 13/09 A2998 RMK AO2 SLP152 T01330089 402890106
KSAC 070653Z AUTO 17006KT 10SM CLR 14/09 A2998 RMK AO2 SLP152 T01440094
KSAC 070553Z AUTO 19007KT 10SM CLR 15/09 A2998 RMK AO2 SLP151 T01500094 10256 20150 51014
KSAC 070453Z AUTO 22010G17KT 10SM CLR 16/09 A2997 RMK AO2 SLP149 T01560094
KSAC 070353Z 21010G17KT 10SM CLR 17/09 A2996 RMK AO2 SLP144 T01670094
KSAC 070253Z 22015G24KT 10SM CLR 19/09 A2994 RMK AO2 SLP137 T01890089 55000
KSAC 070153Z 22010G22KT 10SM CLR 21/09 A2994 RMK AO2 PK WND 21027/0056 SLP137 T02110094
KSAC 070053Z 22018G25KT 10SM CLR 23/07 A2994 RMK AO2 SLP136 T02330072
KSAC 062353Z 21015G22KT 10SM CLR 26/08 A2994 RMK AO2 SLP138 60000 T02560078 10289 20211 56010
KSAC 062253Z 21018G25KT 10SM CLR 26/07 A2995 RMK AO2 RAB41E50 SLP140 P0000 T02610067
KSAC 062153Z 22012G17KT 10SM CLR 28/04 A2996 RMK AO2 SLP144 T02830044
KSAC 062053Z 23011KT 10SM CLR 28/05 A2997 RMK AO2 SLP147 T02780050 58008
KSAC 061953Z 20008KT 10SM CLR 26/06 A2998 RMK AO2 SLP152 T02560061
KSAC 061853Z 20009KT 170V230 10SM CLR 24/07 A2999 RMK AO2 SLP156 T02390067
KSAC 061753Z 18007KT 10SM CLR 21/08 A2999 RMK AO2 SLP156 T02110078 10211 20106 50002
KSAC 061653Z 21006KT 10SM CLR 18/07 A3000 RMK AO2 SLP159 T01780072
KSAC 061553Z 17006KT 10SM CLR 15/07 A3000 RMK AO2 SLP157 T01500072